sensor_id;sensor_type;location;lat;lon;timestamp;pressure;altitude;pressure_sealevel;temperature
64947;BMP280;51469;52.150;4.682;2022-07-21T00:02:25;102017.28;;;27.78
64947;BMP280;51469;52.150;4.682;2022-07-21T00:04:50;102004.41;;;27.77
64947;BMP280;51469;52.150;4.682;2022-07-21T00:07:15;102003.31;;;27.84
64947;BMP280;51469;52.150;4.682;2022-07-21T00:09:41;102011.66;;;27.78
64947;BMP280;51469;52.150;4.682;2022-07-21T00:12:06;102005.22;;;27.78
64947;BMP280;51469;52.150;4.682;2022-07-21T00:14:32;102010.03;;;27.86
64947;BMP280;51469;52.150;4.682;2022-07-21T00:16:57;102010.94;;;27.92
64947;BMP280;51469;52.150;4.682;2022-07-21T00:19:23;102003.44;;;27.89
64947;BMP280;51469;52.150;4.682;2022-07-21T00:21:48;101987.81;;;27.88
64947;BMP280;51469;52.150;4.682;2022-07-21T00:24:13;101983.53;;;27.93
64947;BMP280;51469;52.150;4.682;2022-07-21T00:26:39;101986.53;;;27.89
64947;BMP280;51469;52.150;4.682;2022-07-21T00:29:05;101991.09;;;27.87
64947;BMP280;51469;52.150;4.682;2022-07-21T00:31:30;101989.03;;;27.87
64947;BMP280;51469;52.150;4.682;2022-07-21T00:33:56;101991.25;;;27.83
64947;BMP280;51469;52.150;4.682;2022-07-21T00:36:21;101997.88;;;27.71
64947;BMP280;51469;52.150;4.682;2022-07-21T00:38:47;101990.97;;;27.72
64947;BMP280;51469;52.150;4.682;2022-07-21T00:41:13;102000.06;;;27.67
64947;BMP280;51469;52.150;4.682;2022-07-21T00:43:39;101997.25;;;27.76
64947;BMP280;51469;52.150;4.682;2022-07-21T00:46:05;101998.34;;;27.70
64947;BMP280;51469;52.150;4.682;2022-07-21T00:48:30;101993.19;;;27.59
64947;BMP280;51469;52.150;4.682;2022-07-21T00:50:56;101995.69;;;27.58
64947;BMP280;51469;52.150;4.682;2022-07-21T00:53:21;101991.31;;;27.57
64947;BMP280;51469;52.150;4.682;2022-07-21T00:55:47;101994.44;;;27.50
64947;BMP280;51469;52.150;4.682;2022-07-21T00:58:13;101996.66;;;27.55
64947;BMP280;51469;52.150;4.682;2022-07-21T01:00:39;101993.50;;;27.52
64947;BMP280;51469;52.150;4.682;2022-07-21T01:03:06;101992.00;;;27.43
64947;BMP280;51469;52.150;4.682;2022-07-21T01:05:32;101992.28;;;27.54
64947;BMP280;51469;52.150;4.682;2022-07-21T01:07:58;101998.97;;;27.56
64947;BMP280;51469;52.150;4.682;2022-07-21T01:10:29;101984.13;;;27.47
64947;BMP280;51469;52.150;4.682;2022-07-21T01:12:54;101981.94;;;27.42
64947;BMP280;51469;52.150;4.682;2022-07-21T01:15:21;101969.75;;;27.36
64947;BMP280;51469;52.150;4.682;2022-07-21T01:17:47;101972.53;;;27.45
64947;BMP280;51469;52.150;4.682;2022-07-21T01:20:16;101976.56;;;27.52
64947;BMP280;51469;52.150;4.682;2022-07-21T01:22:43;101967.84;;;27.51
64947;BMP280;51469;52.150;4.682;2022-07-21T01:25:09;101963.16;;;27.48
64947;BMP280;51469;52.150;4.682;2022-07-21T01:27:35;101969.44;;;27.43
64947;BMP280;51469;52.150;4.682;2022-07-21T01:30:02;101966.94;;;27.36
64947;BMP280;51469;52.150;4.682;2022-07-21T01:32:27;101965.69;;;27.37
64947;BMP280;51469;52.150;4.682;2022-07-21T01:34:53;101967.53;;;27.40
64947;BMP280;51469;52.150;4.682;2022-07-21T01:37:23;101965.34;;;27.35
64947;BMP280;51469;52.150;4.682;2022-07-21T01:39:51;101960.81;;;27.28
64947;BMP280;51469;52.150;4.682;2022-07-21T01:42:35;101961.28;;;27.36
64947;BMP280;51469;52.150;4.682;2022-07-21T01:45:01;101959.72;;;27.35
64947;BMP280;51469;52.150;4.682;2022-07-21T01:47:27;101953.78;;;27.33
64947;BMP280;51469;52.150;4.682;2022-07-21T01:49:53;101948.44;;;27.35
64947;BMP280;51469;52.150;4.682;2022-07-21T01:52:18;101945.94;;;27.37
64947;BMP280;51469;52.150;4.682;2022-07-21T01:54:44;101951.44;;;27.40
64947;BMP280;51469;52.150;4.682;2022-07-21T01:57:10;101951.25;;;27.35
64947;BMP280;51469;52.150;4.682;2022-07-21T01:59:35;101946.56;;;27.32
64947;BMP280;51469;52.150;4.682;2022-07-21T02:02:00;101938.25;;;27.28
64947;BMP280;51469;52.150;4.682;2022-07-21T02:04:26;101934.19;;;27.38
64947;BMP280;51469;52.150;4.682;2022-07-21T02:06:51;101930.59;;;27.38
64947;BMP280;51469;52.150;4.682;2022-07-21T02:09:17;101941.25;;;27.34
64947;BMP280;51469;52.150;4.682;2022-07-21T02:11:42;101954.88;;;27.35
64947;BMP280;51469;52.150;4.682;2022-07-21T02:14:07;101950.03;;;27.36
64947;BMP280;51469;52.150;4.682;2022-07-21T02:16:33;101950.34;;;27.29
64947;BMP280;51469;52.150;4.682;2022-07-21T02:18:59;101950.34;;;27.29
64947;BMP280;51469;52.150;4.682;2022-07-21T02:21:24;101944.69;;;27.29
64947;BMP280;51469;52.150;4.682;2022-07-21T02:23:50;101949.72;;;27.34
64947;BMP280;51469;52.150;4.682;2022-07-21T02:26:15;101945.66;;;27.26
64947;BMP280;51469;52.150;4.682;2022-07-21T02:28:40;101946.72;;;27.28
64947;BMP280;51469;52.150;4.682;2022-07-21T02:31:06;101942.22;;;27.31
64947;BMP280;51469;52.150;4.682;2022-07-21T02:33:32;101945.66;;;27.26
64947;BMP280;51469;52.150;4.682;2022-07-21T02:35:58;101936.25;;;27.29
64947;BMP280;51469;52.150;4.682;2022-07-21T02:38:23;101938.09;;;27.32
64947;BMP280;51469;52.150;4.682;2022-07-21T02:40:49;101936.38;;;27.34
64947;BMP280;51469;52.150;4.682;2022-07-21T02:43:14;101932.97;;;27.30
64947;BMP280;51469;52.150;4.682;2022-07-21T02:45:39;101932.81;;;27.25
64947;BMP280;51469;52.150;4.682;2022-07-21T02:48:10;101932.81;;;27.25
64947;BMP280;51469;52.150;4.682;2022-07-21T02:50:37;101926.53;;;27.30
64947;BMP280;51469;52.150;4.682;2022-07-21T02:53:23;101924.66;;;27.27
64947;BMP280;51469;52.150;4.682;2022-07-21T02:55:50;101923.56;;;27.33
64947;BMP280;51469;52.150;4.682;2022-07-21T02:58:26;101914.97;;;27.28
64947;BMP280;51469;52.150;4.682;2022-07-21T03:00:57;101904.28;;;27.32
64947;BMP280;51469;52.150;4.682;2022-07-21T03:03:24;101908.53;;;27.27
64947;BMP280;51469;52.150;4.682;2022-07-21T03:05:50;101908.38;;;27.31
64947;BMP280;51469;52.150;4.682;2022-07-21T03:08:16;101927.63;;;27.32
64947;BMP280;51469;52.150;4.682;2022-07-21T03:10:42;101918.06;;;27.30
64947;BMP280;51469;52.150;4.682;2022-07-21T03:13:08;101918.72;;;27.34
64947;BMP280;51469;52.150;4.682;2022-07-21T03:15:34;101916.50;;;27.38
64947;BMP280;51469;52.150;4.682;2022-07-21T03:17:59;101912.72;;;27.41
64947;BMP280;51469;52.150;4.682;2022-07-21T03:20:27;101922.44;;;27.49
64947;BMP280;51469;52.150;4.682;2022-07-21T03:22:53;101922.09;;;27.47
64947;BMP280;51469;52.150;4.682;2022-07-21T03:25:19;101919.31;;;27.38
64947;BMP280;51469;52.150;4.682;2022-07-21T03:27:46;101916.06;;;27.30
64947;BMP280;51469;52.150;4.682;2022-07-21T03:30:12;101915.91;;;27.25
64947;BMP280;51469;52.150;4.682;2022-07-21T03:32:38;101911.22;;;27.22
64947;BMP280;51469;52.150;4.682;2022-07-21T03:35:05;101912.91;;;27.28
64947;BMP280;51469;52.150;4.682;2022-07-21T03:37:31;101916.53;;;27.11
64947;BMP280;51469;52.150;4.682;2022-07-21T03:39:57;101908.88;;;27.02
64947;BMP280;51469;52.150;4.682;2022-07-21T03:42:22;101910.59;;;27.09
64947;BMP280;51469;52.150;4.682;2022-07-21T03:44:48;101913.72;;;27.11
64947;BMP280;51469;52.150;4.682;2022-07-21T03:47:13;101908.25;;;27.16
64947;BMP280;51469;52.150;4.682;2022-07-21T03:49:39;101918.72;;;27.16
64947;BMP280;51469;52.150;4.682;2022-07-21T03:52:04;101913.06;;;27.25
64947;BMP280;51469;52.150;4.682;2022-07-21T03:54:30;101910.25;;;27.25
64947;BMP280;51469;52.150;4.682;2022-07-21T03:56:55;101915.25;;;27.30
64947;BMP280;51469;52.150;4.682;2022-07-21T03:59:21;101918.88;;;27.30
64947;BMP280;51469;52.150;4.682;2022-07-21T04:01:46;101917.59;;;27.40
64947;BMP280;51469;52.150;4.682;2022-07-21T04:04:11;101917.41;;;27.44
64947;BMP280;51469;52.150;4.682;2022-07-21T04:06:37;101921.13;;;27.50
64947;BMP280;51469;52.150;4.682;2022-07-21T04:09:03;101917.69;;;27.55
64947;BMP280;51469;52.150;4.682;2022-07-21T04:11:29;101919.91;;;27.51
64947;BMP280;51469;52.150;4.682;2022-07-21T04:13:56;101929.59;;;27.50
64947;BMP280;51469;52.150;4.682;2022-07-21T04:16:21;101917.25;;;27.47
64947;BMP280;51469;52.150;4.682;2022-07-21T04:18:47;101926.03;;;27.49
64947;BMP280;51469;52.150;4.682;2022-07-21T04:21:12;101914.94;;;27.46
64947;BMP280;51469;52.150;4.682;2022-07-21T04:23:37;101916.81;;;27.40
64947;BMP280;51469;52.150;4.682;2022-07-21T04:26:03;101915.88;;;27.43
64947;BMP280;51469;52.150;4.682;2022-07-21T04:28:28;101921.13;;;27.50
64947;BMP280;51469;52.150;4.682;2022-07-21T04:30:54;101926.22;;;27.46
64947;BMP280;51469;52.150;4.682;2022-07-21T04:33:20;101926.22;;;27.46
64947;BMP280;51469;52.150;4.682;2022-07-21T04:35:45;101924.91;;;27.47
64947;BMP280;51469;52.150;4.682;2022-07-21T04:38:11;101928.38;;;27.51
64947;BMP280;51469;52.150;4.682;2022-07-21T04:40:37;101924.91;;;27.56
64947;BMP280;51469;52.150;4.682;2022-07-21T04:43:02;101928.03;;;27.58
64947;BMP280;51469;52.150;4.682;2022-07-21T04:45:28;101933.34;;;27.56
64947;BMP280;51469;52.150;4.682;2022-07-21T04:47:55;101926.47;;;27.57
64947;BMP280;51469;52.150;4.682;2022-07-21T04:50:24;101929.19;;;27.42
64947;BMP280;51469;52.150;4.682;2022-07-21T04:52:50;101937.78;;;27.39
64947;BMP280;51469;52.150;4.682;2022-07-21T04:55:16;101936.53;;;27.40
64947;BMP280;51469;52.150;4.682;2022-07-21T04:57:44;101921.78;;;27.45
64947;BMP280;51469;52.150;4.682;2022-07-21T05:00:13;101938.06;;;27.50
64947;BMP280;51469;52.150;4.682;2022-07-21T05:02:39;101925.25;;;27.49
64947;BMP280;51469;52.150;4.682;2022-07-21T05:05:06;101937.47;;;27.46
64947;BMP280;51469;52.150;4.682;2022-07-21T05:07:31;101935.56;;;27.52
64947;BMP280;51469;52.150;4.682;2022-07-21T05:09:57;101929.94;;;27.52
64947;BMP280;51469;52.150;4.682;2022-07-21T05:12:25;101927.41;;;27.54
64947;BMP280;51469;52.150;4.682;2022-07-21T05:14:51;101932.09;;;27.57
64947;BMP280;51469;52.150;4.682;2022-07-21T05:17:16;101924.75;;;27.59
64947;BMP280;51469;52.150;4.682;2022-07-21T05:19:42;101916.41;;;27.64
64947;BMP280;51469;52.150;4.682;2022-07-21T05:22:08;101929.44;;;27.62
64947;BMP280;51469;52.150;4.682;2022-07-21T05:24:34;101918.16;;;27.62
64947;BMP280;51469;52.150;4.682;2022-07-21T05:26:59;101910.19;;;27.61
64947;BMP280;51469;52.150;4.682;2022-07-21T05:29:25;101908.13;;;27.61
64947;BMP280;51469;52.150;4.682;2022-07-21T05:31:50;101913.56;;;27.64
64947;BMP280;51469;52.150;4.682;2022-07-21T05:34:15;101914.22;;;27.68
64947;BMP280;51469;52.150;4.682;2022-07-21T05:36:41;101916.72;;;27.75
64947;BMP280;51469;52.150;4.682;2022-07-21T05:39:06;101916.97;;;27.77
64947;BMP280;51469;52.150;4.682;2022-07-21T05:41:32;101916.88;;;27.72
64947;BMP280;51469;52.150;4.682;2022-07-21T05:43:57;101908.91;;;27.70
64947;BMP280;51469;52.150;4.682;2022-07-21T05:46:22;101902.00;;;27.62
64947;BMP280;51469;52.150;4.682;2022-07-21T05:48:48;101902.28;;;27.64
64947;BMP280;51469;52.150;4.682;2022-07-21T05:51:13;101908.25;;;27.66
64947;BMP280;51469;52.150;4.682;2022-07-21T05:53:38;101908.25;;;27.66
64947;BMP280;51469;52.150;4.682;2022-07-21T05:56:04;101905.59;;;27.72
64947;BMP280;51469;52.150;4.682;2022-07-21T05:58:29;101911.50;;;27.74
64947;BMP280;51469;52.150;4.682;2022-07-21T06:00:55;101908.56;;;27.68
64947;BMP280;51469;52.150;4.682;2022-07-21T06:03:44;101909.63;;;27.71
64947;BMP280;51469;52.150;4.682;2022-07-21T06:06:11;101909.16;;;27.81
64947;BMP280;51469;52.150;4.682;2022-07-21T06:08:39;101911.63;;;27.88
64947;BMP280;51469;52.150;4.682;2022-07-21T06:11:05;101905.50;;;27.90
64947;BMP280;51469;52.150;4.682;2022-07-21T06:13:31;101901.88;;;27.89
64947;BMP280;51469;52.150;4.682;2022-07-21T06:15:56;101912.53;;;27.94
64947;BMP280;51469;52.150;4.682;2022-07-21T06:18:22;101911.56;;;27.97
64947;BMP280;51469;52.150;4.682;2022-07-21T06:20:47;101920.97;;;28.03
64947;BMP280;51469;52.150;4.682;2022-07-21T06:23:12;101920.50;;;27.96
64947;BMP280;51469;52.150;4.682;2022-07-21T06:25:38;101915.13;;;27.74
64947;BMP280;51469;52.150;4.682;2022-07-21T06:28:04;101922.69;;;27.59
64947;BMP280;51469;52.150;4.682;2022-07-21T06:30:29;101915.09;;;27.42
64947;BMP280;51469;52.150;4.682;2022-07-21T06:32:55;101918.41;;;27.23
64947;BMP280;51469;52.150;4.682;2022-07-21T06:35:20;101913.72;;;27.02
64947;BMP280;51469;52.150;4.682;2022-07-21T06:37:46;101922.19;;;26.93
64947;BMP280;51469;52.150;4.682;2022-07-21T06:40:12;101919.06;;;26.73
64947;BMP280;51469;52.150;4.682;2022-07-21T06:42:38;101921.41;;;26.56
64947;BMP280;51469;52.150;4.682;2022-07-21T06:45:04;101929.97;;;26.44
64947;BMP280;51469;52.150;4.682;2022-07-21T06:47:29;101922.44;;;26.32
64947;BMP280;51469;52.150;4.682;2022-07-21T06:49:55;101928.84;;;26.32
64947;BMP280;51469;52.150;4.682;2022-07-21T06:52:20;101929.50;;;26.36
64947;BMP280;51469;52.150;4.682;2022-07-21T06:54:46;101927.78;;;26.39
64947;BMP280;51469;52.150;4.682;2022-07-21T06:57:12;101933.97;;;26.25
64947;BMP280;51469;52.150;4.682;2022-07-21T06:59:38;101941.28;;;26.13
64947;BMP280;51469;52.150;4.682;2022-07-21T07:02:04;101942.53;;;26.12
64947;BMP280;51469;52.150;4.682;2022-07-21T07:04:30;101947.66;;;26.05
64947;BMP280;51469;52.150;4.682;2022-07-21T07:06:55;101942.34;;;25.98
64947;BMP280;51469;52.150;4.682;2022-07-21T07:09:21;101950.88;;;25.85
64947;BMP280;51469;52.150;4.682;2022-07-21T07:11:48;101958.13;;;25.74
64947;BMP280;51469;52.150;4.682;2022-07-21T07:14:16;101957.81;;;25.72
64947;BMP280;51469;52.150;4.682;2022-07-21T07:16:41;101956.25;;;25.71
64947;BMP280;51469;52.150;4.682;2022-07-21T07:19:07;101953.41;;;25.62
64947;BMP280;51469;52.150;4.682;2022-07-21T07:21:32;101960.91;;;25.65
64947;BMP280;51469;52.150;4.682;2022-07-21T07:23:57;101960.72;;;25.59
64947;BMP280;51469;52.150;4.682;2022-07-21T07:26:23;101953.78;;;25.52
64947;BMP280;51469;52.150;4.682;2022-07-21T07:28:48;101953.97;;;25.57
64947;BMP280;51469;52.150;4.682;2022-07-21T07:31:14;101958.63;;;25.51
64947;BMP280;51469;52.150;4.682;2022-07-21T07:33:39;101959.28;;;25.55
64947;BMP280;51469;52.150;4.682;2022-07-21T07:36:05;101954.59;;;25.52
64947;BMP280;51469;52.150;4.682;2022-07-21T07:38:30;101962.94;;;25.43
64947;BMP280;51469;52.150;4.682;2022-07-21T07:40:55;101965.41;;;25.41
64947;BMP280;51469;52.150;4.682;2022-07-21T07:43:21;101962.28;;;25.39
64947;BMP280;51469;52.150;4.682;2022-07-21T07:45:46;101967.13;;;25.39
64947;BMP280;51469;52.150;4.682;2022-07-21T07:48:12;101954.28;;;25.38
64947;BMP280;51469;52.150;4.682;2022-07-21T07:50:37;101963.31;;;25.33
64947;BMP280;51469;52.150;4.682;2022-07-21T07:53:03;101959.41;;;25.30
64947;BMP280;51469;52.150;4.682;2022-07-21T07:55:28;101970.56;;;25.21
64947;BMP280;51469;52.150;4.682;2022-07-21T07:57:54;101974.97;;;25.22
64947;BMP280;51469;52.150;4.682;2022-07-21T08:00:19;101967.97;;;25.27
64947;BMP280;51469;52.150;4.682;2022-07-21T08:02:45;101965.22;;;25.14
64947;BMP280;51469;52.150;4.682;2022-07-21T08:05:11;101976.16;;;25.21
64947;BMP280;51469;52.150;4.682;2022-07-21T08:07:38;101973.00;;;25.10
64947;BMP280;51469;52.150;4.682;2022-07-21T08:10:08;101982.66;;;25.09
64947;BMP280;51469;52.150;4.682;2022-07-21T08:12:35;101985.88;;;25.20
64947;BMP280;51469;52.150;4.682;2022-07-21T08:15:01;101989.34;;;25.24
64947;BMP280;51469;52.150;4.682;2022-07-21T08:17:27;101991.50;;;25.20
64947;BMP280;51469;52.150;4.682;2022-07-21T08:19:53;101993.13;;;25.30
64947;BMP280;51469;52.150;4.682;2022-07-21T08:22:18;101997.72;;;25.37
64947;BMP280;51469;52.150;4.682;2022-07-21T08:24:43;101993.78;;;25.34
64947;BMP280;51469;52.150;4.682;2022-07-21T08:27:09;101995.34;;;25.35
64947;BMP280;51469;52.150;4.682;2022-07-21T08:29:34;101995.59;;;25.28
64947;BMP280;51469;52.150;4.682;2022-07-21T08:32:00;101994.38;;;25.29
64947;BMP280;51469;52.150;4.682;2022-07-21T08:34:26;102001.06;;;25.10
64947;BMP280;51469;52.150;4.682;2022-07-21T08:36:52;102000.66;;;24.99
64947;BMP280;51469;52.150;4.682;2022-07-21T08:39:18;101995.28;;;24.92
64947;BMP280;51469;52.150;4.682;2022-07-21T08:41:43;102007.19;;;24.96
64947;BMP280;51469;52.150;4.682;2022-07-21T08:44:09;102009.09;;;24.99
64947;BMP280;51469;52.150;4.682;2022-07-21T08:46:37;102017.38;;;25.03
64947;BMP280;51469;52.150;4.682;2022-07-21T08:49:03;102003.00;;;25.01
64947;BMP280;51469;52.150;4.682;2022-07-21T08:51:35;102007.84;;;25.00
64947;BMP280;51469;52.150;4.682;2022-07-21T08:54:01;102014.09;;;25.04
64947;BMP280;51469;52.150;4.682;2022-07-21T08:56:26;102023.78;;;25.03
64947;BMP280;51469;52.150;4.682;2022-07-21T08:58:52;102021.53;;;24.98
64947;BMP280;51469;52.150;4.682;2022-07-21T09:01:17;102026.50;;;24.94
64947;BMP280;51469;52.150;4.682;2022-07-21T09:03:42;102024.16;;;24.93
64947;BMP280;51469;52.150;4.682;2022-07-21T09:06:13;102015.09;;;24.76
64947;BMP280;51469;52.150;4.682;2022-07-21T09:08:44;102017.97;;;24.60
64947;BMP280;51469;52.150;4.682;2022-07-21T09:11:24;102023.38;;;24.67
64947;BMP280;51469;52.150;4.682;2022-07-21T09:14:13;102030.34;;;24.75
64947;BMP280;51469;52.150;4.682;2022-07-21T09:16:43;102019.00;;;24.79
64947;BMP280;51469;52.150;4.682;2022-07-21T09:21:49;102020.44;;;24.83
64947;BMP280;51469;52.150;4.682;2022-07-21T09:27:13;102030.44;;;24.84
64947;BMP280;51469;52.150;4.682;2022-07-21T09:29:40;102031.22;;;24.85
64947;BMP280;51469;52.150;4.682;2022-07-21T09:34:43;102037.97;;;24.62
64947;BMP280;51469;52.150;4.682;2022-07-21T09:37:08;102036.66;;;24.67
64947;BMP280;51469;52.150;4.682;2022-07-21T09:40:26;102038.47;;;24.73
64947;BMP280;51469;52.150;4.682;2022-07-21T09:42:48;102042.47;;;24.72
64947;BMP280;51469;52.150;4.682;2022-07-21T09:45:16;102050.88;;;24.72
64947;BMP280;51469;52.150;4.682;2022-07-21T09:47:45;102037.41;;;24.67
64947;BMP280;51469;52.150;4.682;2022-07-21T09:50:14;102031.91;;;24.64
64947;BMP280;51469;52.150;4.682;2022-07-21T09:52:42;102033.50;;;24.65
64947;BMP280;51469;52.150;4.682;2022-07-21T09:55:15;102037.22;;;24.62
64947;BMP280;51469;52.150;4.682;2022-07-21T09:57:43;102037.63;;;24.60
64947;BMP280;51469;52.150;4.682;2022-07-21T10:00:11;102034.72;;;24.64
64947;BMP280;51469;52.150;4.682;2022-07-21T10:02:38;102037.75;;;24.69
64947;BMP280;51469;52.150;4.682;2022-07-21T10:05:20;102042.47;;;24.72
64947;BMP280;51469;52.150;4.682;2022-07-21T10:07:47;102043.34;;;24.82
64947;BMP280;51469;52.150;4.682;2022-07-21T10:10:14;102045.50;;;24.78
64947;BMP280;51469;52.150;4.682;2022-07-21T10:12:40;102042.47;;;24.72
64947;BMP280;51469;52.150;4.682;2022-07-21T10:15:05;102046.63;;;24.80
64947;BMP280;51469;52.150;4.682;2022-07-21T10:17:31;102037.72;;;24.94
64947;BMP280;51469;52.150;4.682;2022-07-21T10:20:08;102050.53;;;24.95
64947;BMP280;51469;52.150;4.682;2022-07-21T10:25:02;102041.59;;;25.22
64947;BMP280;51469;52.150;4.682;2022-07-21T10:27:28;102048.78;;;25.23
64947;BMP280;51469;52.150;4.682;2022-07-21T10:29:56;102054.72;;;25.37
64947;BMP280;51469;52.150;4.682;2022-07-21T10:34:53;102055.25;;;25.66
64947;BMP280;51469;52.150;4.682;2022-07-21T10:40:06;102058.63;;;25.61
64947;BMP280;51469;52.150;4.682;2022-07-21T10:42:32;102057.81;;;25.60
64947;BMP280;51469;52.150;4.682;2022-07-21T10:44:57;102063.88;;;25.50
64947;BMP280;51469;52.150;4.682;2022-07-21T10:47:23;102058.75;;;25.36
64947;BMP280;51469;52.150;4.682;2022-07-21T10:49:57;102056.84;;;25.33
64947;BMP280;51469;52.150;4.682;2022-07-21T10:57:40;102050.56;;;25.63
64947;BMP280;51469;52.150;4.682;2022-07-21T11:02:50;102060.16;;;25.53
64947;BMP280;51469;52.150;4.682;2022-07-21T11:05:15;102061.19;;;25.47
64947;BMP280;51469;52.150;4.682;2022-07-21T11:08:08;102065.03;;;25.40
64947;BMP280;51469;52.150;4.682;2022-07-21T11:10:35;102065.34;;;25.42
64947;BMP280;51469;52.150;4.682;2022-07-21T11:13:01;102064.13;;;25.43
64947;BMP280;51469;52.150;4.682;2022-07-21T11:15:55;102073.53;;;25.49
64947;BMP280;51469;52.150;4.682;2022-07-21T11:18:23;102066.41;;;25.57
64947;BMP280;51469;52.150;4.682;2022-07-21T11:21:15;102077.94;;;25.71
64947;BMP280;51469;52.150;4.682;2022-07-21T11:23:50;102069.88;;;25.61
64947;BMP280;51469;52.150;4.682;2022-07-21T11:26:18;102081.25;;;25.57
64947;BMP280;51469;52.150;4.682;2022-07-21T11:28:44;102081.44;;;25.42
64947;BMP280;51469;52.150;4.682;2022-07-21T11:31:19;102078.72;;;25.38
64947;BMP280;51469;52.150;4.682;2022-07-21T11:33:50;102080.19;;;25.43
64947;BMP280;51469;52.150;4.682;2022-07-21T11:36:23;102077.34;;;25.55
64947;BMP280;51469;52.150;4.682;2022-07-21T11:39:05;102088.88;;;25.69
64947;BMP280;51469;52.150;4.682;2022-07-21T11:41:31;102086.38;;;25.71
64947;BMP280;51469;52.150;4.682;2022-07-21T11:43:57;102081.78;;;25.65
64947;BMP280;51469;52.150;4.682;2022-07-21T11:46:22;102088.06;;;25.69
64947;BMP280;51469;52.150;4.682;2022-07-21T11:48:48;102074.56;;;25.43
64947;BMP280;51469;52.150;4.682;2022-07-21T11:51:24;102077.56;;;25.48
64947;BMP280;51469;52.150;4.682;2022-07-21T11:53:50;102084.34;;;25.38
64947;BMP280;51469;52.150;4.682;2022-07-21T11:56:15;102079.88;;;25.28
64947;BMP280;51469;52.150;4.682;2022-07-21T11:58:44;102081.34;;;25.33
64947;BMP280;51469;52.150;4.682;2022-07-21T12:01:10;102077.66;;;25.23
64947;BMP280;51469;52.150;4.682;2022-07-21T12:03:46;102076.69;;;25.17
64947;BMP280;51469;52.150;4.682;2022-07-21T12:06:12;102075.91;;;25.04
64947;BMP280;51469;52.150;4.682;2022-07-21T12:08:38;102070.25;;;25.17
64947;BMP280;51469;52.150;4.682;2022-07-21T12:11:08;102077.25;;;25.12
64947;BMP280;51469;52.150;4.682;2022-07-21T12:13:53;102076.00;;;25.47
64947;BMP280;51469;52.150;4.682;2022-07-21T12:16:19;102080.31;;;25.39
64947;BMP280;51469;52.150;4.682;2022-07-21T12:18:44;102082.63;;;25.19
64947;BMP280;51469;52.150;4.682;2022-07-21T12:21:09;102073.19;;;25.13
64947;BMP280;51469;52.150;4.682;2022-07-21T12:23:35;102080.13;;;25.21
64947;BMP280;51469;52.150;4.682;2022-07-21T12:26:02;102078.81;;;25.13
64947;BMP280;51469;52.150;4.682;2022-07-21T12:28:45;102078.31;;;25.27
64947;BMP280;51469;52.150;4.682;2022-07-21T12:31:13;102076.84;;;25.35
64947;BMP280;51469;52.150;4.682;2022-07-21T12:33:39;102082.38;;;25.26
64947;BMP280;51469;52.150;4.682;2022-07-21T12:36:07;102070.28;;;25.04
64947;BMP280;51469;52.150;4.682;2022-07-21T12:38:47;102086.00;;;25.14
64947;BMP280;51469;52.150;4.682;2022-07-21T12:41:18;102084.59;;;25.31
64947;BMP280;51469;52.150;4.682;2022-07-21T12:43:55;102085.03;;;25.42
64947;BMP280;51469;52.150;4.682;2022-07-21T12:46:35;102072.97;;;25.20
64947;BMP280;51469;52.150;4.682;2022-07-21T12:49:08;102078.31;;;25.27
64947;BMP280;51469;52.150;4.682;2022-07-21T12:51:34;102079.31;;;25.33
64947;BMP280;51469;52.150;4.682;2022-07-21T12:54:00;102084.81;;;25.37
64947;BMP280;51469;52.150;4.682;2022-07-21T12:56:31;102080.84;;;25.47
64947;BMP280;51469;52.150;4.682;2022-07-21T12:58:59;102084.13;;;25.45
64947;BMP280;51469;52.150;4.682;2022-07-21T13:01:26;102089.22;;;25.59
64947;BMP280;51469;52.150;4.682;2022-07-21T13:03:52;102088.50;;;25.46
64947;BMP280;51469;52.150;4.682;2022-07-21T13:06:18;102090.78;;;25.39
64947;BMP280;51469;52.150;4.682;2022-07-21T13:08:45;102096.50;;;25.35
64947;BMP280;51469;52.150;4.682;2022-07-21T13:11:13;102106.25;;;25.09
64947;BMP280;51469;52.150;4.682;2022-07-21T13:13:39;102108.94;;;25.00
64947;BMP280;51469;52.150;4.682;2022-07-21T13:16:06;102110.03;;;25.15
64947;BMP280;51469;52.150;4.682;2022-07-21T13:18:31;102105.56;;;25.05
64947;BMP280;51469;52.150;4.682;2022-07-21T13:20:57;102108.47;;;25.14
64947;BMP280;51469;52.150;4.682;2022-07-21T13:23:22;102112.81;;;25.28
64947;BMP280;51469;52.150;4.682;2022-07-21T13:25:48;102119.34;;;25.37
64947;BMP280;51469;52.150;4.682;2022-07-21T13:28:15;102114.34;;;25.41
64947;BMP280;51469;52.150;4.682;2022-07-21T13:30:41;102126.19;;;25.36
64947;BMP280;51469;52.150;4.682;2022-07-21T13:33:07;102126.09;;;25.61
64947;BMP280;51469;52.150;4.682;2022-07-21T13:35:32;102130.63;;;25.58
64947;BMP280;51469;52.150;4.682;2022-07-21T13:37:58;102138.66;;;25.69
64947;BMP280;51469;52.150;4.682;2022-07-21T13:40:25;102139.59;;;25.66
64947;BMP280;51469;52.150;4.682;2022-07-21T13:42:51;102146.28;;;25.47
64947;BMP280;51469;52.150;4.682;2022-07-21T13:45:16;102157.78;;;25.40
64947;BMP280;51469;52.150;4.682;2022-07-21T13:47:43;102151.00;;;25.38
64947;BMP280;51469;52.150;4.682;2022-07-21T13:50:08;102153.03;;;25.25
64947;BMP280;51469;52.150;4.682;2022-07-21T13:52:34;102147.75;;;25.39
64947;BMP280;51469;52.150;4.682;2022-07-21T13:55:00;102159.91;;;25.36
64947;BMP280;51469;52.150;4.682;2022-07-21T13:57:26;102167.13;;;25.37
64947;BMP280;51469;52.150;4.682;2022-07-21T13:59:51;102169.13;;;25.24
64947;BMP280;51469;52.150;4.682;2022-07-21T14:02:17;102173.53;;;25.13
64947;BMP280;51469;52.150;4.682;2022-07-21T14:04:42;102166.31;;;25.37
64947;BMP280;51469;52.150;4.682;2022-07-21T14:07:08;102165.41;;;25.40
64947;BMP280;51469;52.150;4.682;2022-07-21T14:09:36;102177.00;;;25.29
64947;BMP280;51469;52.150;4.682;2022-07-21T14:12:02;102179.16;;;25.13
64947;BMP280;51469;52.150;4.682;2022-07-21T14:14:27;102184.88;;;25.09
64947;BMP280;51469;52.150;4.682;2022-07-21T14:16:53;102191.28;;;25.10
64947;BMP280;51469;52.150;4.682;2022-07-21T14:19:19;102201.50;;;25.16
64947;BMP280;51469;52.150;4.682;2022-07-21T14:21:45;102196.56;;;25.20